Terminal Aerodrome Forecast
Issued by NWS Tampa Bay Area, FL

Home | Current Version | Previous Version | Text Only | Print | Product List | Glossary On
Versions: 1 2 3 4 5 6 7 8 9 10 11 12 13 14 15 16 17 18 19 20 21 22 23 24 25 26 27 28 29 30
000
FTUS42 KTBW 152335
TAFFMY
TAF
KFMY 152335Z 1600/1624 10005KT P6SM VCTS SCT030CB BKN060 BKN250
      TEMPO 1600/1602 VRB15G20KT 3SM TSRA BKN030CB
     FM160300 VRB03KT P6SM SCT030 BKN200
     FM161500 13006KT P6SM SCT030 SCT100
     FM161800 15006KT P6SM VCTS BKN040CB BKN080=

USA.gov is the U.S. government's official web portal to all federal, state and local government web resources and services.